Time;durP1;ratioP1;P1;durP2;ratioP2;P2;SDS_P1;SDS_P2;PMS_P1;PMS_P2;Temp;Humidity;BMP_temperature;BMP_pressure;BME280_temperature;BME280_humidity;BME280_pressure;Samples;Min_cycle;Max_cycle;Signal;HPM_P1;HPM_P2
2022/07/18 00:01:04;;;;;;;5.27;2.10;;;18.30;1.00;;;;;;5049640;28;20649;-58
2022/07/18 00:03:30;;;;;;;7.17;3.87;;;18.30;1.00;;;;;;5051084;28;20849;-58
2022/07/18 00:05:55;;;;;;;5.07;2.77;;;18.20;1.00;;;;;;5050980;28;20470;-58
2022/07/18 00:08:21;;;;;;;2.47;1.83;;;18.20;1.00;;;;;;5050703;28;20191;-58
2022/07/18 00:10:46;;;;;;;5.13;2.30;;;18.20;1.00;;;;;;5048901;28;20195;-59
2022/07/18 00:13:12;;;;;;;3.53;2.30;;;18.20;1.00;;;;;;5049774;28;20196;-57
2022/07/18 00:15:38;;;;;;;2.50;2.17;;;18.10;1.00;;;;;;5051860;28;20195;-59
2022/07/18 00:18:04;;;;;;;2.70;2.10;;;18.10;1.00;;;;;;5051385;28;20654;-58
2022/07/18 00:20:30;;;;;;;4.00;2.10;;;17.20;1.00;;;;;;5050818;28;20435;-58
2022/07/18 00:22:55;;;;;;;3.87;1.80;;;18.10;1.00;;;;;;5051010;28;20545;-59
2022/07/18 00:25:21;;;;;;;4.30;2.37;;;18.10;1.00;;;;;;5051748;28;20176;-58
2022/07/18 00:27:47;;;;;;;5.20;2.40;;;18.10;1.00;;;;;;5047205;28;20897;-58
2022/07/18 00:30:13;;;;;;;3.97;2.50;;;18.10;1.00;;;;;;5052945;28;20537;-58
2022/07/18 00:32:39;;;;;;;7.20;2.30;;;18.10;1.00;;;;;;5048088;28;20220;-59
2022/07/18 00:35:05;;;;;;;4.57;2.00;;;18.10;1.00;;;;;;5052093;28;20437;-59
2022/07/18 00:37:31;;;;;;;3.47;2.53;;;18.00;1.00;;;;;;5041635;28;20298;-59
2022/07/18 00:39:56;;;;;;;5.93;1.83;;;17.90;1.00;;;;;;5049866;28;20542;-59
2022/07/18 00:42:22;;;;;;;3.10;2.10;;;17.80;1.00;;;;;;5050791;28;20230;-59
2022/07/18 00:44:55;;;;;;;8.20;2.67;;;17.80;1.00;;;;;;5051445;28;20207;-59
2022/07/18 00:47:22;;;;;;;3.03;1.90;;;17.80;1.00;;;;;;5048292;28;20199;-59
2022/07/18 00:49:47;;;;;;;2.90;1.60;;;17.70;1.00;;;;;;5051110;28;20858;-60
2022/07/18 00:52:13;;;;;;;8.43;2.47;;;17.60;1.00;;;;;;5047265;28;20461;-59
2022/07/18 00:54:39;;;;;;;6.50;1.83;;;17.60;1.00;;;;;;5050720;28;20245;-59
2022/07/18 00:57:06;;;;;;;4.03;2.00;;;17.50;1.00;;;;;;5049257;28;20208;-59
2022/07/18 01:02:15;;;;;;;2.53;1.70;;;17.50;1.00;;;;;;5050887;28;20953;-59
2022/07/18 01:04:41;;;;;;;5.40;2.17;;;17.50;1.00;;;;;;5049844;28;20434;-59
2022/07/18 01:07:07;;;;;;;3.50;2.10;;;17.50;1.00;;;;;;5049385;28;20196;-59
2022/07/18 01:09:32;;;;;;;3.27;2.17;;;17.40;1.00;;;;;;5050633;28;20223;-58
2022/07/18 01:11:58;;;;;;;6.00;2.37;;;17.30;1.00;;;;;;5046807;28;20212;-59
2022/07/18 01:14:25;;;;;;;2.83;2.03;;;17.30;1.00;;;;;;5050851;28;20589;-57
2022/07/18 01:16:51;;;;;;;4.70;1.83;;;17.30;1.00;;;;;;5048572;28;20208;-58
2022/07/18 01:19:17;;;;;;;2.80;2.10;;;;;;;;;;5050383;28;20453;-60
2022/07/18 01:21:42;;;;;;;3.10;2.03;;;17.20;1.00;;;;;;5046694;28;20188;-59
2022/07/18 01:24:08;;;;;;;4.17;2.30;;;17.10;1.00;;;;;;5048362;28;20462;-59
2022/07/18 01:26:34;;;;;;;5.43;2.00;;;17.00;1.00;;;;;;5054154;28;20282;-58
2022/07/18 01:29:00;;;;;;;6.67;2.40;;;17.00;1.00;;;;;;5064697;28;20196;-59
2022/07/18 01:31:26;;;;;;;3.80;2.03;;;17.00;1.00;;;;;;5049337;28;20231;-59
2022/07/18 01:33:54;;;;;;;2.90;1.63;;;17.00;1.00;;;;;;5049604;28;20802;-59
2022/07/18 01:36:20;;;;;;;7.10;2.67;;;17.00;1.00;;;;;;5049805;28;20562;-59
2022/07/18 01:38:45;;;;;;;2.43;2.00;;;16.90;1.00;;;;;;5048380;28;20955;-58
2022/07/18 01:41:11;;;;;;;6.30;2.03;;;16.80;1.00;;;;;;5043649;28;20192;-59
2022/07/18 01:43:41;;;;;;;4.00;2.20;;;16.90;1.00;;;;;;5044695;28;20215;-58
2022/07/18 01:46:08;;;;;;;2.03;1.83;;;16.70;1.00;;;;;;5048903;28;20199;-59
2022/07/18 01:48:39;;;;;;;4.67;2.37;;;16.70;1.00;;;;;;5047324;28;20512;-59
2022/07/18 01:51:09;;;;;;;2.83;2.10;;;16.60;1.00;;;;;;5048346;28;21016;-58
2022/07/18 01:53:36;;;;;;;4.27;2.37;;;16.60;1.00;;;;;;5049899;28;20488;-59
2022/07/18 01:56:05;;;;;;;4.10;2.27;;;16.60;1.00;;;;;;5049682;28;20497;-59
2022/07/18 01:58:31;;;;;;;4.37;1.90;;;16.60;1.00;;;;;;5042998;28;20443;-59
2022/07/18 02:00:56;;;;;;;3.57;2.57;;;16.60;1.00;;;;;;5048738;28;20795;-59
2022/07/18 02:03:22;;;;;;;3.37;2.20;;;16.40;1.00;;;;;;5048030;28;20192;-59
2022/07/18 02:05:47;;;;;;;2.60;2.40;;;16.40;1.00;;;;;;5046474;28;20196;-58
2022/07/18 02:08:13;;;;;;;3.73;2.73;;;16.40;1.00;;;;;;5049805;28;20272;-59
2022/07/18 02:10:39;;;;;;;2.90;2.60;;;16.40;1.00;;;;;;5048370;28;20196;-59
2022/07/18 02:13:05;;;;;;;4.17;2.40;;;16.40;1.00;;;;;;5048813;28;20180;-58
2022/07/18 02:15:30;;;;;;;5.27;3.03;;;16.40;1.00;;;;;;5049832;28;20659;-59
2022/07/18 02:17:57;;;;;;;3.20;2.90;;;16.30;1.00;;;;;;5048743;28;20480;-59
2022/07/18 02:20:23;;;;;;;3.63;2.70;;;16.30;1.00;;;;;;5048961;28;20566;-59
2022/07/18 02:22:48;;;;;;;3.70;2.10;;;16.30;1.00;;;;;;5048177;28;20448;-58
2022/07/18 02:25:14;;;;;;;3.30;2.17;;;16.30;1.00;;;;;;5060832;28;20223;-58
2022/07/18 02:27:40;;;;;;;2.33;2.13;;;16.30;1.00;;;;;;5048423;28;20192;-59
2022/07/18 02:30:07;;;;;;;6.30;2.80;;;16.30;1.00;;;;;;5046422;28;20188;-59
2022/07/18 02:32:34;;;;;;;3.43;2.60;;;16.20;1.00;;;;;;5048259;28;20219;-59
2022/07/18 02:35:00;;;;;;;5.53;2.90;;;16.20;1.00;;;;;;5049693;28;20454;-59
2022/07/18 02:37:25;;;;;;;4.80;2.83;;;16.20;1.00;;;;;;5048084;28;20469;-59
2022/07/18 02:39:51;;;;;;;3.27;2.80;;;16.20;1.00;;;;;;5048738;28;20211;-58
2022/07/18 02:42:16;;;;;;;3.43;3.00;;;16.20;1.00;;;;;;5044180;28;20223;-58
2022/07/18 02:44:43;;;;;;;3.40;3.10;;;16.10;1.00;;;;;;5050214;28;20544;-59
2022/07/18 02:47:08;;;;;;;3.40;2.63;;;16.10;1.00;;;;;;5047869;28;20237;-59
2022/07/18 02:49:34;;;;;;;5.13;3.13;;;16.10;1.00;;;;;;5049689;28;20946;-58
2022/07/18 02:52:05;;;;;;;5.83;4.07;;;16.10;1.00;;;;;;5045031;28;20219;-59
2022/07/18 02:54:33;;;;;;;4.70;4.30;;;16.00;1.00;;;;;;5048749;28;20184;-59
2022/07/18 02:56:59;;;;;;;7.00;4.70;;;15.90;1.00;;;;;;5047209;28;20498;-58
2022/07/18 02:59:26;;;;;;;6.70;5.40;;;15.90;1.00;;;;;;5047840;28;20496;-59
2022/07/18 03:01:52;;;;;;;7.60;6.67;;;16.00;1.00;;;;;;5048775;28;20482;-60
2022/07/18 03:04:19;;;;;;;8.27;5.77;;;16.00;1.00;;;;;;5048733;28;20461;-59
2022/07/18 03:06:45;;;;;;;7.77;6.10;;;16.00;1.00;;;;;;5049136;28;20530;-59
2022/07/18 03:09:11;;;;;;;13.43;6.50;;;16.00;1.00;;;;;;5047706;28;20470;-59
2022/07/18 03:11:37;;;;;;;8.73;6.67;;;15.90;1.00;;;;;;5048206;28;20580;-58
2022/07/18 03:14:02;;;;;;;7.00;5.80;;;16.00;1.00;;;;;;5048818;28;20446;-59
2022/07/18 03:16:28;;;;;;;8.30;5.83;;;15.90;1.00;;;;;;5052442;28;20215;-60
2022/07/18 03:18:54;;;;;;;7.27;5.63;;;15.90;1.00;;;;;;5051374;28;20680;-60
2022/07/18 03:21:20;;;;;;;6.70;5.97;;;15.90;1.00;;;;;;5052743;28;20188;-60
2022/07/18 03:23:46;;;;;;;9.93;5.80;;;15.80;1.00;;;;;;5065286;28;20187;-59
2022/07/18 03:26:11;;;;;;;7.30;5.77;;;15.80;1.00;;;;;;5054308;28;20443;-60
2022/07/18 03:28:37;;;;;;;10.57;6.03;;;15.80;1.00;;;;;;5049602;28;20939;-59
2022/07/18 03:31:06;;;;;;;8.07;5.30;;;15.70;1.00;;;;;;5052757;28;20220;-59
2022/07/18 03:33:31;;;;;;;6.53;5.03;;;15.70;1.00;;;;;;5049418;28;20192;-58
2022/07/18 03:35:57;;;;;;;7.90;5.20;;;15.70;1.00;;;;;;5053230;28;20481;-59
2022/07/18 03:38:23;;;;;;;6.70;5.20;;;15.70;1.00;;;;;;5047415;28;20202;-59
2022/07/18 03:40:49;;;;;;;6.93;5.30;;;15.70;1.00;;;;;;5052205;28;20695;-59
2022/07/18 03:43:14;;;;;;;8.00;5.40;;;15.80;1.00;;;;;;5051806;28;20196;-58
2022/07/18 03:45:40;;;;;;;9.50;5.77;;;15.90;1.00;;;;;;5050933;28;20514;-59
2022/07/18 03:48:06;;;;;;;8.00;5.83;;;16.00;1.00;;;;;;5052853;28;20180;-59
2022/07/18 03:50:31;;;;;;;9.07;5.90;;;16.00;1.00;;;;;;5051437;28;20204;-59
2022/07/18 03:52:57;;;;;;;9.53;5.93;;;16.10;1.00;;;;;;5051349;28;20231;-60
2022/07/18 03:55:23;;;;;;;7.43;5.60;;;16.10;1.00;;;;;;5051282;28;20185;-58
2022/07/18 03:57:49;;;;;;;7.67;6.37;;;16.10;1.00;;;;;;5051554;28;20565;-58
2022/07/18 04:00:16;;;;;;;6.13;5.40;;;16.10;1.00;;;;;;5052274;28;20323;-58
2022/07/18 04:02:43;;;;;;;9.20;5.97;;;16.10;1.00;;;;;;5050564;28;20188;-59
2022/07/18 04:05:09;;;;;;;8.40;6.60;;;16.00;1.00;;;;;;5051500;28;20439;-59
2022/07/18 04:07:35;;;;;;;7.67;6.70;;;16.10;1.00;;;;;;5051024;28;20792;-60
2022/07/18 04:10:01;;;;;;;10.17;5.80;;;16.10;1.00;;;;;;5051367;28;20450;-59
2022/07/18 04:12:26;;;;;;;5.97;5.40;;;16.10;1.00;;;;;;5051453;28;20727;-59
2022/07/18 04:14:52;;;;;;;8.80;5.20;;;16.10;1.00;;;;;;5050587;28;20275;-59
2022/07/18 04:17:17;;;;;;;6.20;5.43;;;16.10;1.00;;;;;;5051090;28;20296;-59
2022/07/18 04:19:43;;;;;;;5.73;5.10;;;16.20;1.00;;;;;;5052035;28;20180;-60
2022/07/18 04:22:09;;;;;;;5.73;4.43;;;16.10;1.00;;;;;;5051747;28;20180;-60
2022/07/18 04:24:34;;;;;;;5.27;4.10;;;16.10;1.00;;;;;;5051864;28;20657;-60
2022/07/18 04:27:00;;;;;;;4.73;3.60;;;16.20;1.00;;;;;;5049789;28;20194;-59
2022/07/18 04:29:26;;;;;;;8.90;4.03;;;16.30;1.00;;;;;;5051908;28;20246;-59
2022/07/18 04:31:51;;;;;;;9.20;4.03;;;16.40;1.00;;;;;;5050339;28;20258;-57
2022/07/18 04:34:17;;;;;;;6.50;4.13;;;16.40;1.00;;;;;;5052827;28;20192;-59
2022/07/18 04:36:43;;;;;;;6.10;4.07;;;16.40;1.00;;;;;;5049242;28;20226;-59
2022/07/18 04:39:08;;;;;;;4.70;4.30;;;16.40;1.00;;;;;;5054440;28;20184;-60
2022/07/18 04:41:34;;;;;;;10.33;4.50;;;16.40;1.00;;;;;;5051567;28;20199;-59
2022/07/18 04:43:59;;;;;;;5.60;4.03;;;16.60;1.00;;;;;;5050624;28;20180;-59
2022/07/18 04:46:25;;;;;;;5.00;3.97;;;16.60;1.00;;;;;;5051176;28;20279;-60
2022/07/18 04:48:51;;;;;;;6.70;4.20;;;16.70;1.00;;;;;;5050641;28;20191;-59
2022/07/18 04:51:16;;;;;;;7.60;4.27;;;16.80;1.00;;;;;;5050652;28;20245;-59
2022/07/18 04:53:42;;;;;;;7.77;4.57;;;16.80;1.00;;;;;;5050722;28;20191;-59
2022/07/18 04:56:08;;;;;;;9.13;5.60;;;16.80;1.00;;;;;;5051062;28;20200;-60
2022/07/18 04:58:33;;;;;;;7.27;6.10;;;16.90;1.00;;;;;;5048802;28;20191;-59
2022/07/18 05:00:59;;;;;;;9.53;6.50;;;17.00;1.00;;;;;;5052309;28;20189;-59
2022/07/18 05:03:25;;;;;;;5.40;4.90;;;17.00;1.00;;;;;;5050129;28;20212;-58
2022/07/18 05:05:50;;;;;;;11.63;7.23;;;17.10;1.00;;;;;;5049863;28;20184;-58
2022/07/18 05:08:16;;;;;;;11.13;5.97;;;17.10;1.00;;;;;;5050946;28;20205;-59
2022/07/18 05:10:41;;;;;;;9.03;6.13;;;17.30;1.00;;;;;;5050377;28;20289;-58
2022/07/18 05:13:07;;;;;;;8.27;6.00;;;17.40;1.00;;;;;;5049418;28;20592;-60
2022/07/18 05:15:33;;;;;;;6.83;5.27;;;17.40;1.00;;;;;;5049501;28;20223;-58
2022/07/18 05:17:58;;;;;;;7.50;5.00;;;17.50;1.00;;;;;;5049025;28;20808;-58
2022/07/18 05:20:25;;;;;;;8.77;4.97;;;17.60;1.00;;;;;;5051082;28;20195;-58
2022/07/18 05:22:52;;;;;;;11.30;5.37;;;17.70;1.00;;;;;;5051113;28;20187;-59
2022/07/18 05:25:18;;;;;;;6.43;4.67;;;17.80;1.00;;;;;;5046854;28;21037;-58
2022/07/18 05:27:44;;;;;;;4.57;4.00;;;17.80;1.00;;;;;;5050900;28;20446;-58
2022/07/18 05:30:12;;;;;;;5.43;4.47;;;17.90;1.00;;;;;;5051206;28;20573;-58
2022/07/18 05:32:42;;;;;;;5.73;4.47;;;18.00;1.00;;;;;;5050594;28;20224;-58
2022/07/18 05:35:10;;;;;;;6.57;4.80;;;18.00;1.00;;;;;;5048653;28;20446;-58
2022/07/18 05:37:37;;;;;;;7.63;4.67;;;18.10;1.00;;;;;;5049488;28;22013;-57
2022/07/18 05:40:07;;;;;;;9.20;4.33;;;18.20;1.00;;;;;;5050403;28;20938;-59
2022/07/18 05:42:33;;;;;;;8.40;4.27;;;18.40;1.00;;;;;;5049910;28;20474;-58
2022/07/18 05:44:59;;;;;;;10.13;3.83;;;18.50;1.00;;;;;;5049673;28;20548;-58
2022/07/18 05:47:25;;;;;;;5.53;3.67;;;18.50;1.00;;;;;;5050095;28;20188;-57
2022/07/18 05:49:50;;;;;;;5.50;3.80;;;18.60;1.00;;;;;;5049358;28;20184;-58
2022/07/18 05:52:16;;;;;;;5.77;3.10;;;18.70;1.00;;;;;;5049648;28;20183;-58
2022/07/18 05:54:42;;;;;;;4.30;3.27;;;18.90;1.00;;;;;;5049383;28;20242;-57
2022/07/18 05:57:07;;;;;;;7.33;3.13;;;19.00;1.00;;;;;;5054466;28;20574;-58
2022/07/18 05:59:33;;;;;;;3.93;2.63;;;19.20;1.00;;;;;;5056356;28;20188;-58
2022/07/18 06:01:58;;;;;;;6.37;3.00;;;19.20;1.00;;;;;;5049863;28;20184;-58
2022/07/18 06:04:24;;;;;;;11.07;2.93;;;19.30;1.00;;;;;;5048721;28;20188;-58
2022/07/18 06:06:50;;;;;;;6.47;2.97;;;19.30;1.00;;;;;;5049692;28;20677;-57
2022/07/18 06:09:16;;;;;;;4.20;2.80;;;19.40;1.00;;;;;;5062270;28;20220;-56
2022/07/18 06:11:42;;;;;;;6.03;3.70;;;19.60;1.00;;;;;;5055389;28;20980;-57
2022/07/18 06:14:07;;;;;;;5.73;3.40;;;19.70;1.00;;;;;;5049810;28;20450;-56
2022/07/18 06:16:33;;;;;;;6.67;2.60;;;19.90;1.00;;;;;;5050183;28;20210;-56
2022/07/18 06:18:59;;;;;;;6.00;2.70;;;20.00;1.00;;;;;;5049876;28;20188;-55
2022/07/18 06:21:25;;;;;;;3.93;2.43;;;20.20;1.00;;;;;;5046292;28;20689;-56
2022/07/18 06:23:51;;;;;;;3.83;2.13;;;20.20;1.00;;;;;;5049079;28;20230;-56
2022/07/18 06:26:17;;;;;;;3.93;2.30;;;20.40;1.00;;;;;;5048728;28;20939;-56
2022/07/18 06:28:42;;;;;;;6.80;2.37;;;20.30;1.00;;;;;;5050136;28;20183;-55
2022/07/18 06:31:08;;;;;;;2.97;2.07;;;20.50;1.00;;;;;;5053304;28;20669;-56
2022/07/18 06:33:33;;;;;;;7.97;2.20;;;20.70;1.00;;;;;;5054798;28;20199;-57
2022/07/18 06:35:59;;;;;;;5.67;2.67;;;20.80;1.00;;;;;;5050394;28;20600;-55
2022/07/18 06:38:25;;;;;;;3.10;2.10;;;20.90;1.00;;;;;;5051069;28;20180;-56
2022/07/18 06:40:50;;;;;;;3.67;2.43;;;20.90;1.00;;;;;;5050462;28;20203;-57
2022/07/18 06:43:19;;;;;;;2.67;1.90;;;21.20;1.00;;;;;;5050147;28;20183;-57
2022/07/18 06:45:47;;;;;;;8.27;2.80;;;21.30;1.00;;;;;;5048245;28;20234;-56
2022/07/18 06:48:14;;;;;;;8.13;2.60;;;21.50;1.00;;;;;;5050146;28;20438;-56
2022/07/18 06:50:40;;;;;;;4.40;2.00;;;21.50;1.00;;;;;;5048473;28;21022;-56
2022/07/18 06:53:06;;;;;;;4.30;2.17;;;21.50;1.00;;;;;;5050434;28;20526;-56
2022/07/18 06:55:31;;;;;;;7.97;3.30;;;21.60;1.00;;;;;;5047427;28;20549;-56
2022/07/18 06:57:57;;;;;;;7.23;2.50;;;21.60;1.00;;;;;;5047877;28;20473;-56
2022/07/18 07:00:22;;;;;;;5.30;1.90;;;21.60;1.00;;;;;;5047363;28;20186;-57
2022/07/18 07:02:49;;;;;;;3.17;1.70;;;21.80;1.00;;;;;;5055879;28;20188;-57
2022/07/18 07:05:17;;;;;;;3.33;2.27;;;21.80;1.00;;;;;;5070167;28;20175;-55
2022/07/18 07:07:43;;;;;;;2.90;1.87;;;21.90;1.00;;;;;;5055563;28;21057;-57
2022/07/18 07:10:09;;;;;;;4.13;2.13;;;22.10;1.00;;;;;;5053827;28;20433;-57
2022/07/18 07:12:43;;;;;;;4.03;2.00;;;22.30;1.00;;;;;;5055791;28;20496;-57
2022/07/18 07:15:10;;;;;;;6.73;2.50;;;22.30;1.00;;;;;;5048914;28;20192;-56
2022/07/18 07:17:36;;;;;;;3.50;2.20;;;22.50;1.00;;;;;;5049558;28;20458;-57
2022/07/18 07:20:03;;;;;;;6.13;2.40;;;22.70;1.00;;;;;;5050102;28;20435;-56
2022/07/18 07:22:29;;;;;;;5.00;2.67;;;23.00;1.00;;;;;;5049951;28;20435;-57
2022/07/18 07:24:55;;;;;;;2.57;2.10;;;23.20;1.00;;;;;;5050259;28;20521;-57
2022/07/18 07:27:20;;;;;;;4.30;1.70;;;23.20;1.00;;;;;;5050083;28;20210;-56
2022/07/18 07:29:46;;;;;;;3.30;2.63;;;23.20;1.00;;;;;;5050087;28;20180;-56
2022/07/18 07:32:11;;;;;;;3.43;2.20;;;23.30;1.00;;;;;;5049549;28;20228;-57
2022/07/18 07:34:37;;;;;;;6.83;3.03;;;23.60;1.00;;;;;;5049891;28;20702;-56
2022/07/18 07:37:02;;;;;;;6.20;2.50;;;23.90;1.00;;;;;;5049754;28;20832;-56
2022/07/18 07:39:28;;;;;;;2.87;1.90;;;24.00;1.00;;;;;;5067785;28;20175;-57
2022/07/18 07:41:54;;;;;;;6.20;2.07;;;24.20;1.00;;;;;;5069877;28;20254;-56
2022/07/18 07:44:19;;;;;;;3.27;2.03;;;24.40;1.00;;;;;;5069791;28;20176;-57
2022/07/18 07:46:45;;;;;;;3.57;2.03;;;24.70;1.00;;;;;;5069813;28;20191;-57
2022/07/18 07:49:10;;;;;;;3.70;1.80;;;24.60;1.00;;;;;;5069764;28;20625;-56
2022/07/18 07:51:36;;;;;;;5.47;2.20;;;24.60;1.00;;;;;;5061914;28;20176;-56
2022/07/18 07:54:05;;;;;;;9.03;5.73;;;24.90;1.00;;;;;;5049695;28;20185;-56
2022/07/18 07:56:31;;;;;;;4.63;2.23;;;25.10;1.00;;;;;;5049243;28;20539;-56
2022/07/18 07:58:56;;;;;;;3.63;1.87;;;25.10;1.00;;;;;;5049680;28;20445;-56
2022/07/18 08:01:22;;;;;;;3.47;2.50;;;25.10;1.00;;;;;;5061336;28;20508;-57
2022/07/18 08:03:49;;;;;;;4.50;1.73;;;25.00;1.00;;;;;;5052885;28;20211;-56
2022/07/18 08:06:15;;;;;;;4.37;2.40;;;25.20;1.00;;;;;;5053036;28;20238;-56
2022/07/18 08:08:41;;;;;;;3.30;2.10;;;25.30;1.00;;;;;;5067242;28;20433;-57
2022/07/18 08:11:06;;;;;;;6.50;2.27;;;25.50;1.00;;;;;;5072963;28;20828;-56
2022/07/18 08:13:32;;;;;;;4.60;2.20;;;25.70;1.00;;;;;;5073419;28;20630;-57
2022/07/18 08:15:58;;;;;;;6.60;2.60;;;25.70;1.00;;;;;;5072872;28;20544;-56
2022/07/18 08:18:23;;;;;;;4.40;1.77;;;25.90;1.00;;;;;;5072861;28;20190;-56
2022/07/18 08:20:49;;;;;;;3.40;1.50;;;26.10;1.00;;;;;;5072913;28;20540;-56
2022/07/18 08:23:16;;;;;;;2.33;1.20;;;26.20;1.00;;;;;;5072785;28;20243;-56
2022/07/18 08:25:44;;;;;;;3.50;1.63;;;26.40;1.00;;;;;;5072822;28;20342;-57
2022/07/18 08:28:10;;;;;;;2.27;1.70;;;26.30;1.00;;;;;;5061224;28;20438;-58
2022/07/18 08:30:37;;;;;;;2.00;1.40;;;26.50;1.00;;;;;;5053036;28;20805;-57
2022/07/18 08:33:03;;;;;;;5.07;1.50;;;26.60;1.00;;;;;;5052570;28;20330;-58
2022/07/18 08:35:34;;;;;;;5.10;1.50;;;26.80;1.00;;;;;;5052583;28;20978;-59
2022/07/18 08:38:01;;;;;;;4.17;1.60;;;27.00;1.00;;;;;;5052306;28;20466;-57
2022/07/18 08:40:27;;;;;;;5.70;2.00;;;27.10;1.00;;;;;;5052494;28;20467;-56
2022/07/18 08:42:56;;;;;;;2.23;1.30;;;26.90;1.00;;;;;;5052400;28;20781;-57
2022/07/18 08:45:24;;;;;;;2.13;1.20;;;26.80;1.00;;;;;;5061562;28;20190;-57
2022/07/18 08:47:51;;;;;;;3.37;1.47;;;26.60;1.00;;;;;;5072581;28;20449;-57
2022/07/18 08:50:18;;;;;;;4.80;1.50;;;26.40;1.00;;;;;;5072459;28;20963;-57
2022/07/18 08:52:44;;;;;;;4.33;1.53;;;26.30;1.00;;;;;;5072165;28;20434;-56
2022/07/18 08:55:11;;;;;;;3.07;1.60;;;26.50;1.00;;;;;;5072309;28;20794;-56
2022/07/18 08:57:36;;;;;;;6.20;1.73;;;27.00;1.00;;;;;;5058835;28;20466;-57
2022/07/18 09:00:05;;;;;;;5.33;1.70;;;27.20;1.00;;;;;;5052275;28;20827;-56
2022/07/18 09:02:31;;;;;;;3.40;1.80;;;27.10;1.00;;;;;;5051888;28;20184;-57
2022/07/18 09:05:00;;;;;;;2.33;1.23;;;27.10;1.00;;;;;;5052465;28;20489;-57
2022/07/18 09:07:32;;;;;;;5.40;2.20;;;27.10;1.00;;;;;;5052051;28;20196;-57
2022/07/18 09:10:00;;;;;;;8.10;1.80;;;27.20;1.00;;;;;;5052061;28;20500;-56
2022/07/18 09:12:28;;;;;;;2.47;1.47;;;27.40;1.00;;;;;;5051228;28;20817;-58
2022/07/18 09:14:54;;;;;;;3.47;1.40;;;27.50;1.00;;;;;;5051319;28;20401;-56
2022/07/18 09:17:23;;;;;;;2.23;1.57;;;27.60;1.00;;;;;;5051729;28;21049;-56
2022/07/18 09:20:11;;;;;;;3.77;1.50;;;27.40;1.00;;;;;;5051901;28;20484;-56
2022/07/18 09:22:42;;;;;;;4.73;1.80;;;27.60;1.00;;;;;;5051469;28;20501;-56
2022/07/18 09:25:16;;;;;;;4.77;2.00;;;27.90;1.00;;;;;;5057793;28;20430;-57
2022/07/18 09:27:48;;;;;;;3.63;1.37;;;27.90;1.00;;;;;;5063245;28;20853;-57
2022/07/18 09:30:34;;;;;;;6.33;2.10;;;27.80;1.00;;;;;;5071510;28;20630;-62
2022/07/18 09:33:02;;;;;;;5.43;1.77;;;27.80;1.00;;;;;;5051233;28;20428;-57
2022/07/18 09:35:33;;;;;;;2.03;1.30;;;27.90;1.00;;;;;;5051220;28;20426;-56
2022/07/18 09:38:05;;;;;;;8.10;1.50;;;27.60;1.00;;;;;;5050813;28;20966;-58
2022/07/18 09:40:34;;;;;;;2.97;1.80;;;27.60;1.00;;;;;;5050683;28;20434;-57
2022/07/18 09:43:06;;;;;;;2.57;1.70;;;27.70;1.00;;;;;;5050493;28;20427;-56
2022/07/18 09:45:42;;;;;;;4.13;1.80;;;27.80;1.00;;;;;;5050432;28;20474;-56
2022/07/18 09:48:13;;;;;;;3.40;1.57;;;27.90;1.00;;;;;;5050047;28;20529;-57
2022/07/18 09:50:51;;;;;;;3.00;1.67;;;28.00;1.00;;;;;;5050764;28;20496;-57
2022/07/18 09:53:47;;;;;;;3.60;1.80;;;27.60;1.00;;;;;;5050881;28;20442;-58
2022/07/18 09:56:22;;;;;;;4.03;1.80;;;28.00;1.00;;;;;;5045303;28;20517;-58
2022/07/18 09:58:53;;;;;;;5.33;1.60;;;27.90;1.00;;;;;;5050206;28;20442;-58
2022/07/18 10:01:19;;;;;;;6.77;1.87;;;28.00;1.00;;;;;;5049437;28;20446;-58
2022/07/18 10:03:45;;;;;;;6.53;1.97;;;28.30;1.00;;;;;;5050377;28;20529;-57
2022/07/18 10:06:11;;;;;;;2.03;1.40;;;28.70;1.00;;;;;;5050236;28;20529;-58
2022/07/18 10:08:37;;;;;;;3.40;1.50;;;29.00;1.00;;;;;;5049827;28;20626;-56
2022/07/18 10:11:07;;;;;;;3.17;1.50;;;28.90;1.00;;;;;;5050211;28;20671;-57
2022/07/18 10:13:35;;;;;;;2.43;1.70;;;28.70;1.00;;;;;;5050462;28;21066;-57
2022/07/18 10:16:01;;;;;;;2.17;1.20;;;28.60;1.00;;;;;;5049679;28;20425;-57
2022/07/18 10:18:29;;;;;;;3.47;1.70;;;28.10;1.00;;;;;;5049974;28;20915;-57
2022/07/18 10:20:59;;;;;;;5.33;2.30;;;28.10;1.00;;;;;;5050139;28;20983;-56
2022/07/18 10:23:35;;;;;;;4.07;1.50;;;28.20;1.00;;;;;;5050042;28;20484;-57
2022/07/18 10:26:16;;;;;;;2.33;1.40;;;28.10;1.00;;;;;;5049459;28;20448;-55
2022/07/18 10:28:56;;;;;;;3.30;1.40;;;26.40;1.00;;;;;;5050094;28;20433;-57
2022/07/18 10:31:38;;;;;;;2.97;1.40;;;28.60;1.00;;;;;;5049704;28;20985;-57
2022/07/18 10:34:06;;;;;;;2.67;1.40;;;28.80;1.00;;;;;;5049909;28;20442;-57
2022/07/18 10:36:34;;;;;;;5.53;1.57;;;29.00;1.00;;;;;;5049788;28;20466;-57
2022/07/18 10:39:07;;;;;;;5.30;1.60;;;28.90;1.00;;;;;;5049664;28;20619;-56
2022/07/18 10:41:38;;;;;;;3.17;2.13;;;28.90;1.00;;;;;;5049995;28;20442;-56
2022/07/18 10:44:30;;;;;;;3.03;1.77;;;28.70;1.00;;;;;;5049420;28;20488;-57
2022/07/18 10:47:05;;;;;;;2.27;1.20;;;29.10;1.00;;;;;;5048389;28;20445;-57
2022/07/18 10:49:47;;;;;;;1.97;1.30;;;29.20;1.00;;;;;;5049768;28;20446;-56
2022/07/18 10:52:33;;;;;;;5.50;1.70;;;29.60;1.00;;;;;;5049330;28;20804;-58
2022/07/18 10:55:02;;;;;;;2.77;1.70;;;29.50;1.00;;;;;;5049967;28;20438;-56
2022/07/18 10:57:28;;;;;;;5.50;1.87;;;29.40;1.00;;;;;;5050294;28;20467;-57
2022/07/18 11:00:09;;;;;;;4.03;2.30;;;29.50;1.00;;;;;;5069730;28;20944;-58
2022/07/18 11:02:46;;;;;;;3.50;1.87;;;29.80;1.00;;;;;;5056814;28;20430;-58
2022/07/18 11:05:28;;;;;;;1.97;1.43;;;;;;;;;;5049733;28;20431;-58
2022/07/18 11:08:02;;;;;;;2.00;1.80;;;29.90;1.00;;;;;;5049514;28;20447;-57
2022/07/18 11:10:43;;;;;;;4.80;1.60;;;30.40;1.00;;;;;;5049702;28;20930;-56
2022/07/18 11:13:23;;;;;;;2.90;1.60;;;30.70;1.00;;;;;;5049373;28;20450;-57
2022/07/18 11:16:09;;;;;;;2.67;1.80;;;30.60;1.00;;;;;;5048919;28;20457;-56
2022/07/18 11:18:44;;;;;;;2.33;1.50;;;30.60;1.00;;;;;;5049550;28;20441;-57
2022/07/18 11:21:32;;;;;;;4.10;1.60;;;30.60;1.00;;;;;;5049523;28;20487;-57
2022/07/18 11:24:06;;;;;;;6.67;1.83;;;30.70;1.00;;;;;;5049635;28;20445;-57
2022/07/18 11:26:32;;;;;;;2.17;1.77;;;30.90;1.00;;;;;;5049325;28;20431;-58
2022/07/18 11:29:04;;;;;;;3.17;1.70;;;30.90;1.00;;;;;;5049510;28;20438;-57
2022/07/18 11:31:32;;;;;;;3.20;1.40;;;30.70;1.00;;;;;;5049130;28;20829;-57
2022/07/18 11:34:00;;;;;;;3.40;1.80;;;30.70;1.00;;;;;;5049321;28;20437;-59
2022/07/18 11:36:30;;;;;;;3.77;2.00;;;31.00;1.00;;;;;;5050816;28;20773;-57
2022/07/18 11:39:02;;;;;;;6.43;2.10;;;31.00;1.00;;;;;;5051015;28;20442;-57
2022/07/18 11:41:28;;;;;;;1.80;1.70;;;31.10;1.00;;;;;;5053137;28;20458;-59
2022/07/18 11:43:55;;;;;;;5.13;2.10;;;31.20;1.00;;;;;;5051994;28;20434;-58
2022/07/18 11:46:23;;;;;;;3.57;1.73;;;31.40;1.00;;;;;;5053133;28;20263;-58
2022/07/18 11:49:02;;;;;;;7.10;2.23;;;31.40;1.00;;;;;;5052480;28;20446;-57
2022/07/18 11:51:38;;;;;;;2.47;1.80;;;31.90;1.00;;;;;;5053040;28;20434;-57
2022/07/18 11:54:05;;;;;;;2.60;2.00;;;31.90;1.00;;;;;;5053124;28;20944;-58
2022/07/18 11:56:31;;;;;;;4.53;2.10;;;31.80;1.00;;;;;;5052735;28;20443;-57
2022/07/18 11:58:57;;;;;;;3.20;1.80;;;31.80;1.00;;;;;;5052497;28;20426;-57
2022/07/18 12:01:33;;;;;;;3.27;1.77;;;32.00;1.00;;;;;;5052888;28;20192;-56
2022/07/18 12:03:59;;;;;;;2.53;1.60;;;32.00;1.00;;;;;;5051766;28;20445;-57
2022/07/18 12:06:27;;;;;;;4.73;1.83;;;32.10;1.00;;;;;;5052935;28;20446;-56
2022/07/18 12:09:00;;;;;;;3.20;1.40;;;32.20;1.00;;;;;;5052729;28;20180;-57
2022/07/18 12:11:36;;;;;;;2.33;1.53;;;32.10;1.00;;;;;;5052807;28;20852;-57
2022/07/18 12:14:08;;;;;;;3.40;1.50;;;31.70;1.00;;;;;;5052589;28;20785;-58
2022/07/18 12:16:45;;;;;;;3.93;1.83;;;31.50;1.00;;;;;;5058492;28;20556;-57
2022/07/18 12:19:16;;;;;;;2.13;1.77;;;31.40;1.00;;;;;;5072272;28;20562;-57
2022/07/18 12:21:56;;;;;;;3.57;1.50;;;31.60;1.00;;;;;;5072516;28;20441;-57
2022/07/18 12:24:27;;;;;;;1.93;1.27;;;31.60;1.00;;;;;;5072441;28;20494;-58
2022/07/18 12:27:09;;;;;;;2.03;1.60;;;31.50;1.00;;;;;;5072389;28;20861;-58
2022/07/18 12:30:09;;;;;;;4.63;1.50;;;31.80;1.00;;;;;;5072433;28;20474;-56
2022/07/18 12:32:42;;;;;;;4.60;1.80;;;31.80;1.00;;;;;;5061143;28;20462;-57
2022/07/18 12:35:31;;;;;;;2.07;1.70;;;31.50;1.00;;;;;;5051890;28;20441;-57
2022/07/18 12:37:58;;;;;;;2.70;1.77;;;31.20;1.00;;;;;;5060220;28;20473;-57
2022/07/18 12:40:40;;;;;;;2.47;2.13;;;31.10;1.00;;;;;;5072183;28;20426;-56
2022/07/18 12:43:09;;;;;;;4.10;1.97;;;31.10;1.00;;;;;;5061762;28;20434;-57
2022/07/18 12:45:36;;;;;;;3.57;2.10;;;31.20;1.00;;;;;;5052125;28;20872;-57
2022/07/18 12:48:02;;;;;;;4.93;2.07;;;31.70;1.00;;;;;;5051265;28;20426;-58
2022/07/18 12:50:28;;;;;;;4.43;1.90;;;;;;;;;;5051591;28;20446;-57
2022/07/18 12:52:54;;;;;;;3.87;1.83;;;31.60;1.00;;;;;;5052004;28;20442;-57
2022/07/18 12:55:19;;;;;;;2.43;1.50;;;31.60;1.00;;;;;;5051371;28;20445;-58
2022/07/18 12:57:45;;;;;;;3.77;1.90;;;31.80;1.00;;;;;;5051875;28;20215;-57
2022/07/18 13:00:12;;;;;;;2.87;1.67;;;32.10;1.00;;;;;;5051319;28;20652;-57
2022/07/18 13:02:37;;;;;;;2.10;1.70;;;32.30;1.00;;;;;;5051935;28;20187;-57
2022/07/18 13:05:03;;;;;;;3.77;2.43;;;32.40;1.00;;;;;;5051689;28;20431;-56